Terminal Aerodrome Forecast
Issued by NWS Pueblo, CO

Home | Current Version | Previous Version | Text Only | Print | Product List | Glossary On
Versions: 1 2 3 4 5 6 7 8 9 10 11 12 13 14 15 16 17 18 19 20 21 22 23 24 25 26 27 28 29 30
000
FTUS45 KPUB 301137
TAFALS
TAF
KALS 301137Z 3012/3112 17007KT 3SM BR VCSH SCT010 BKN025
      TEMPO 3012/3016 1 1/2SM -SN BR SCT006 BKN015
     FM301700 19006KT P6SM VCSH SCT020 BKN050
     FM302000 20007KT 3SM -RASN BR BKN015=

USA.gov is the U.S. government's official web portal to all federal, state and local government web resources and services.